Freedom, California
Current Conditions -  °F | °C
As of 5:53 AM on Friday 19 Dec 2014 (Local Time) from KWVI Reporting Station
Overcast Overcast  
Wind Chill: 54°   Ceiling: 3300
Heat Index: 54°   Visibility: 10mi
Dew Point: 51°   Wind: 3mph
Humidity: 90%   Direction: 320°NW
Pressure: 30.17"   Gusts: NA
Location:  36.94°N, 121.77°W
Report Text: KWVI 191353Z AUTO 32003KT 10SM OVC033 12/11 A3017 RMK AO2 SLP217 T01220106
Loading
Personal Weather Stations






























Interactive Weather Map New forecast layout! Learn more

10-Day Weather Forecast

Advertisements
Track Severe Weather on mobile